PWSweather.com
Personal Weather Stations
Station Observations
IMAZOWIE6
WarszawaPL

WarszawaPL

Lat: 52.27957, Lon: 21.05489

Elevation: 100

Station Type: WS1080

http://stacjapogody.waw.pl/

Latest ConditionsUpdated 7:04:49 PM GMT+01:01 Sunday, Jan 26, 2020
Currently Today's Max Today's Min Today's Average
Temperature 33.4°F0.8°C 36.7°F2.6°C 33.4°F0.8°C 35.3°F1.8°C
Dew Point -169.5°F-111.9°C -169.1°F-111.7°C -169.5°F-111.9°C -169.3°F-111.8°C
Winds Calm Calm Calm -Calm - - Calm Calm
Wind Gusts -- 0.6 mph1.0 kmh - -
Humidity - - - -
Pressure 31.32 in1060.6 mb 31.69 in1073.1 mb 31.27 in1058.9 mb -
Hour Temp Dew Point Humidity Winds Wind Gusts Pressure Precip Precip Rate Daily Precip Total
07:04 PM 33.4°F0.8°C -169.5°F-111.9°C - Calm Calm -- 31.32 in1060.6 mb 0.00 in0.0 mm 0.00 in0.0 mm 0.00 in0.0 mm
06:49 PM 33.6°F0.9°C -169.4°F-111.9°C - Calm Calm -- 31.31 in1060.3 mb 0.00 in0.0 mm 0.00 in0.0 mm 0.00 in0.0 mm
06:34 PM 34.2°F1.2°C -169.4°F-111.9°C - Calm Calm -- 31.30 in1059.9 mb 0.00 in0.0 mm 0.00 in0.0 mm 0.00 in0.0 mm
06:19 PM 34.5°F1.4°C -169.3°F-111.8°C - Calm Calm -- 31.30 in1059.9 mb 0.00 in0.0 mm 0.00 in0.0 mm 0.00 in0.0 mm
06:04 PM 34.7°F1.5°C -169.3°F-111.8°C - Calm Calm -- 31.28 in1059.3 mb 0.00 in0.0 mm 0.00 in0.0 mm 0.00 in0.0 mm
05:49 PM 34.7°F1.5°C -169.3°F-111.8°C - Calm Calm -- 31.28 in1059.3 mb 0.00 in0.0 mm 0.00 in0.0 mm 0.00 in0.0 mm
05:34 PM 34.9°F1.6°C -169.3°F-111.8°C - Calm Calm -- 31.28 in1059.3 mb 0.00 in0.0 mm 0.00 in0.0 mm 0.00 in0.0 mm
05:19 PM 35.2°F1.8°C -169.3°F-111.8°C - Calm Calm -- 31.27 in1058.9 mb 0.00 in0.0 mm 0.00 in0.0 mm 0.00 in0.0 mm
05:04 PM 35.2°F1.8°C -169.3°F-111.8°C - Calm Calm -- 31.27 in1058.9 mb 0.00 in0.0 mm 0.00 in0.0 mm 0.00 in0.0 mm
04:49 PM 35.4°F1.9°C -169.3°F-111.8°C - Calm Calm -- 31.28 in1059.3 mb 0.00 in0.0 mm 0.00 in0.0 mm 0.00 in0.0 mm
04:34 PM 35.4°F1.9°C -169.3°F-111.8°C - Calm Calm -- 31.28 in1059.3 mb 0.00 in0.0 mm 0.00 in0.0 mm 0.00 in0.0 mm
04:19 PM 35.6°F2.0°C -169.2°F-111.8°C - Calm Calm -- 31.29 in1059.6 mb 0.00 in0.0 mm 0.00 in0.0 mm 0.00 in0.0 mm
04:04 PM 36.0°F2.2°C -169.2°F-111.8°C - Calm Calm -- 31.28 in1059.3 mb 0.00 in0.0 mm 0.00 in0.0 mm 0.00 in0.0 mm
03:49 PM 36.0°F2.2°C -169.2°F-111.8°C - Calm Calm -- 31.28 in1059.3 mb 0.00 in0.0 mm 0.00 in0.0 mm 0.00 in0.0 mm
03:34 PM 36.3°F2.4°C -169.2°F-111.8°C - Calm Calm -- 31.28 in1059.3 mb 0.00 in0.0 mm 0.00 in0.0 mm 0.00 in0.0 mm
03:19 PM 36.5°F2.5°C -169.2°F-111.8°C - Calm Calm -- 31.28 in1059.3 mb 0.00 in0.0 mm 0.00 in0.0 mm 0.00 in0.0 mm
03:04 PM 36.5°F2.5°C -169.2°F-111.8°C - Calm Calm -- 31.28 in1059.3 mb 0.00 in0.0 mm 0.00 in0.0 mm 0.00 in0.0 mm
02:49 PM 36.7°F2.6°C -169.1°F-111.7°C - Calm Calm -- 31.28 in1059.3 mb 0.00 in0.0 mm 0.00 in0.0 mm 0.00 in0.0 mm
02:34 PM 36.7°F2.6°C -169.1°F-111.7°C - Calm Calm -- 31.28 in1059.3 mb 0.00 in0.0 mm 0.00 in0.0 mm 0.00 in0.0 mm
02:19 PM 36.5°F2.5°C -169.2°F-111.8°C - Calm Calm -- 31.28 in1059.3 mb 0.00 in0.0 mm 0.00 in0.0 mm 0.00 in0.0 mm
02:04 PM 36.5°F2.5°C -169.2°F-111.8°C - Calm Calm -- 31.30 in1059.9 mb 0.00 in0.0 mm 0.00 in0.0 mm 0.00 in0.0 mm
01:49 PM 36.7°F2.6°C -169.1°F-111.7°C - Calm Calm -- 31.31 in1060.3 mb 0.00 in0.0 mm 0.00 in0.0 mm 0.00 in0.0 mm
01:34 PM 36.7°F2.6°C -169.1°F-111.7°C - Calm Calm -- 31.33 in1061.0 mb 0.00 in0.0 mm 0.00 in0.0 mm 0.00 in0.0 mm
01:19 PM 36.3°F2.4°C -169.2°F-111.8°C - Calm Calm -- 31.33 in1061.0 mb 0.00 in0.0 mm 0.00 in0.0 mm 0.00 in0.0 mm
01:04 PM 36.0°F2.2°C -169.2°F-111.8°C - Calm Calm -- 31.35 in1061.6 mb 0.00 in0.0 mm 0.00 in0.0 mm 0.00 in0.0 mm
12:49 PM 35.6°F2.0°C -169.2°F-111.8°C - Calm Calm -- 31.36 in1062.0 mb 0.00 in0.0 mm 0.00 in0.0 mm 0.00 in0.0 mm
12:34 PM 36.0°F2.2°C -169.2°F-111.8°C - Calm Calm -- 31.37 in1062.3 mb 0.00 in0.0 mm 0.00 in0.0 mm 0.00 in0.0 mm
12:19 PM 35.8°F2.1°C -169.2°F-111.8°C - Calm Calm -- 31.39 in1063.0 mb 0.00 in0.0 mm 0.00 in0.0 mm 0.00 in0.0 mm
12:04 PM 35.6°F2.0°C -169.2°F-111.8°C - Calm Calm 0.6 mph1.0 kmh 31.41 in1063.7 mb 0.00 in0.0 mm 0.00 in0.0 mm 0.00 in0.0 mm
11:49 AM 35.6°F2.0°C -169.2°F-111.8°C - Calm Calm -- 31.43 in1064.3 mb 0.00 in0.0 mm 0.00 in0.0 mm 0.00 in0.0 mm
11:34 AM 35.6°F2.0°C -169.2°F-111.8°C - Calm Calm -- 31.45 in1065.0 mb 0.00 in0.0 mm 0.00 in0.0 mm 0.00 in0.0 mm
11:19 AM 35.8°F2.1°C -169.2°F-111.8°C - Calm Calm -- 31.48 in1066.0 mb 0.00 in0.0 mm 0.00 in0.0 mm 0.00 in0.0 mm
11:04 AM 35.6°F2.0°C -169.2°F-111.8°C - Calm Calm -- 31.50 in1066.7 mb 0.00 in0.0 mm 0.00 in0.0 mm 0.00 in0.0 mm
10:49 AM 35.4°F1.9°C -169.3°F-111.8°C - Calm Calm -- 31.53 in1067.7 mb 0.00 in0.0 mm 0.00 in0.0 mm 0.00 in0.0 mm
10:34 AM 35.2°F1.8°C -169.3°F-111.8°C - Calm Calm -- 31.55 in1068.4 mb 0.00 in0.0 mm 0.00 in0.0 mm 0.00 in0.0 mm
10:19 AM 35.1°F1.7°C -169.3°F-111.8°C - Calm Calm -- 31.56 in1068.7 mb 0.00 in0.0 mm 0.00 in0.0 mm 0.00 in0.0 mm
10:04 AM 35.1°F1.7°C -169.3°F-111.8°C - Calm Calm -- 31.58 in1069.4 mb 0.00 in0.0 mm 0.00 in0.0 mm 0.00 in0.0 mm
09:49 AM 35.1°F1.7°C -169.3°F-111.8°C - Calm Calm -- 31.59 in1069.8 mb 0.00 in0.0 mm 0.00 in0.0 mm 0.00 in0.0 mm
09:34 AM 35.2°F1.8°C -169.3°F-111.8°C - Calm Calm -- 31.59 in1069.8 mb 0.00 in0.0 mm 0.00 in0.0 mm 0.00 in0.0 mm
09:19 AM 35.1°F1.7°C -169.3°F-111.8°C - Calm Calm -- 31.59 in1069.8 mb 0.00 in0.0 mm 0.00 in0.0 mm 0.00 in0.0 mm
09:04 AM 35.2°F1.8°C -169.3°F-111.8°C - Calm Calm -- 31.59 in1069.8 mb 0.00 in0.0 mm 0.00 in0.0 mm 0.00 in0.0 mm
08:49 AM 35.2°F1.8°C -169.3°F-111.8°C - Calm Calm -- 31.59 in1069.8 mb 0.00 in0.0 mm 0.00 in0.0 mm 0.00 in0.0 mm
08:34 AM 35.6°F2.0°C -169.2°F-111.8°C - Calm Calm -- 31.59 in1069.8 mb 0.00 in0.0 mm 0.00 in0.0 mm 0.00 in0.0 mm
08:19 AM 35.4°F1.9°C -169.3°F-111.8°C - Calm Calm -- 31.60 in1070.1 mb 0.00 in0.0 mm 0.00 in0.0 mm 0.00 in0.0 mm
08:04 AM 35.2°F1.8°C -169.3°F-111.8°C - Calm Calm -- 31.60 in1070.1 mb 0.00 in0.0 mm 0.00 in0.0 mm 0.00 in0.0 mm
07:49 AM 34.9°F1.6°C -169.3°F-111.8°C - Calm Calm -- 31.60 in1070.1 mb 0.00 in0.0 mm 0.00 in0.0 mm 0.00 in0.0 mm
07:34 AM 34.9°F1.6°C -169.3°F-111.8°C - Calm Calm -- 31.60 in1070.1 mb 0.00 in0.0 mm 0.00 in0.0 mm 0.00 in0.0 mm
07:19 AM 34.7°F1.5°C -169.3°F-111.8°C - Calm Calm -- 31.61 in1070.4 mb 0.00 in0.0 mm 0.00 in0.0 mm 0.00 in0.0 mm
07:04 AM 34.7°F1.5°C -169.3°F-111.8°C - Calm Calm -- 31.61 in1070.4 mb 0.00 in0.0 mm 0.00 in0.0 mm 0.00 in0.0 mm
06:49 AM 34.5°F1.4°C -169.3°F-111.8°C - Calm Calm -- 31.62 in1070.8 mb 0.00 in0.0 mm 0.00 in0.0 mm 0.00 in0.0 mm
06:34 AM 34.7°F1.5°C -169.3°F-111.8°C - Calm Calm -- 31.62 in1070.8 mb 0.00 in0.0 mm 0.00 in0.0 mm 0.00 in0.0 mm
06:19 AM 34.9°F1.6°C -169.3°F-111.8°C - Calm Calm -- 31.63 in1071.1 mb 0.00 in0.0 mm 0.00 in0.0 mm 0.00 in0.0 mm
06:04 AM 34.9°F1.6°C -169.3°F-111.8°C - Calm Calm -- 31.63 in1071.1 mb 0.00 in0.0 mm 0.00 in0.0 mm 0.00 in0.0 mm
05:49 AM 34.9°F1.6°C -169.3°F-111.8°C - Calm Calm -- 31.65 in1071.8 mb 0.00 in0.0 mm 0.00 in0.0 mm 0.00 in0.0 mm
05:34 AM 34.9°F1.6°C -169.3°F-111.8°C - Calm Calm -- 31.66 in1072.1 mb 0.00 in0.0 mm 0.00 in0.0 mm 0.00 in0.0 mm
05:19 AM 34.9°F1.6°C -169.3°F-111.8°C - Calm Calm -- 31.69 in1073.1 mb 0.00 in0.0 mm 0.00 in0.0 mm 0.00 in0.0 mm
05:04 AM 34.9°F1.6°C -169.3°F-111.8°C - Calm Calm -- 31.69 in1073.1 mb 0.00 in0.0 mm 0.00 in0.0 mm 0.00 in0.0 mm
04:49 AM 34.9°F1.6°C -169.3°F-111.8°C - Calm Calm -- 31.67 in1072.5 mb 0.00 in0.0 mm 0.00 in0.0 mm 0.00 in0.0 mm
04:34 AM 34.9°F1.6°C -169.3°F-111.8°C - Calm Calm -- 31.66 in1072.1 mb 0.00 in0.0 mm 0.00 in0.0 mm 0.00 in0.0 mm
04:19 AM 35.1°F1.7°C -169.3°F-111.8°C - Calm Calm -- 31.65 in1071.8 mb 0.00 in0.0 mm 0.00 in0.0 mm 0.00 in0.0 mm
04:04 AM 34.9°F1.6°C -169.3°F-111.8°C - Calm Calm -- 31.65 in1071.8 mb 0.00 in0.0 mm 0.00 in0.0 mm 0.00 in0.0 mm
03:49 AM 34.7°F1.5°C -169.3°F-111.8°C - Calm Calm -- 31.64 in1071.5 mb 0.00 in0.0 mm 0.00 in0.0 mm 0.00 in0.0 mm
03:34 AM 34.9°F1.6°C -169.3°F-111.8°C - Calm Calm -- 31.62 in1070.8 mb 0.00 in0.0 mm 0.00 in0.0 mm 0.00 in0.0 mm
03:19 AM 34.9°F1.6°C -169.3°F-111.8°C - Calm Calm -- 31.61 in1070.4 mb 0.00 in0.0 mm 0.00 in0.0 mm 0.00 in0.0 mm
03:04 AM 34.9°F1.6°C -169.3°F-111.8°C - Calm Calm -- 31.61 in1070.4 mb 0.00 in0.0 mm 0.00 in0.0 mm 0.00 in0.0 mm
02:49 AM 34.9°F1.6°C -169.3°F-111.8°C - Calm Calm -- 31.59 in1069.8 mb 0.00 in0.0 mm 0.00 in0.0 mm 0.00 in0.0 mm
02:34 AM 34.9°F1.6°C -169.3°F-111.8°C - Calm Calm -- 31.58 in1069.4 mb 0.00 in0.0 mm 0.00 in0.0 mm 0.00 in0.0 mm
02:19 AM 35.1°F1.7°C -169.3°F-111.8°C - Calm Calm -- 31.57 in1069.1 mb 0.00 in0.0 mm 0.00 in0.0 mm 0.00 in0.0 mm
02:04 AM 35.1°F1.7°C -169.3°F-111.8°C - Calm Calm -- 31.57 in1069.1 mb 0.00 in0.0 mm 0.00 in0.0 mm 0.00 in0.0 mm
01:49 AM 35.1°F1.7°C -169.3°F-111.8°C - Calm Calm -- 31.55 in1068.4 mb 0.00 in0.0 mm 0.00 in0.0 mm 0.00 in0.0 mm
01:34 AM 35.1°F1.7°C -169.3°F-111.8°C - Calm Calm -- 31.54 in1068.1 mb 0.00 in0.0 mm 0.00 in0.0 mm 0.00 in0.0 mm
01:19 AM 34.9°F1.6°C -169.3°F-111.8°C - Calm Calm -- 31.52 in1067.4 mb 0.00 in0.0 mm 0.00 in0.0 mm 0.00 in0.0 mm
01:04 AM 35.1°F1.7°C -169.3°F-111.8°C - Calm Calm -- 31.51 in1067.1 mb 0.00 in0.0 mm 0.00 in0.0 mm 0.00 in0.0 mm
12:49 AM 35.1°F1.7°C -169.3°F-111.8°C - Calm Calm -- 31.49 in1066.4 mb 0.00 in0.0 mm 0.00 in0.0 mm 0.00 in0.0 mm
12:34 AM 34.9°F1.6°C -169.3°F-111.8°C - Calm Calm -- 31.48 in1066.0 mb 0.00 in0.0 mm 0.00 in0.0 mm 0.00 in0.0 mm
12:19 AM 35.2°F1.8°C -169.3°F-111.8°C - Calm Calm -- 31.46 in1065.4 mb 0.00 in0.0 mm 0.00 in0.0 mm 0.00 in0.0 mm
12:04 AM 35.1°F1.7°C -169.3°F-111.8°C - Calm Calm -- 31.44 in1064.7 mb 0.00 in0.0 mm 0.00 in0.0 mm 0.00 in0.0 mm